Time;durP1;ratioP1;P1;durP2;ratioP2;P2;SDS_P1;SDS_P2;PMS_P1;PMS_P2;Temp;Humidity;BMP_temperature;BMP_pressure;BME280_temperature;BME280_humidity;BME280_pressure;Samples;Min_cycle;Max_cycle;Signal;HPM_P1;HPM_P2
2022/04/29 00:00:51;;;;;;;;;;;;;;;17.05;40.53;101255.38;5077925;28;1910;-58
2022/04/29 00:03:17;;;;;;;;;;;;;;;17.27;41.26;101255.25;5078027;28;774;-58
2022/04/29 00:05:42;;;;;;;;;;;;;;;17.39;42.57;101252.31;5078472;28;901;-59
2022/04/29 00:08:08;;;;;;;;;;;;;;;17.56;43.35;101251.28;5076980;28;890;-59
2022/04/29 00:10:34;;;;;;;;;;;;;;;17.60;43.86;101255.97;5077529;28;816;-59
2022/04/29 00:13:00;;;;;;;;;;;;;;;17.66;44.30;101250.50;5077511;28;1343;-58
2022/04/29 00:15:25;;;;;;;;;;;;;;;17.76;44.27;101247.78;5077526;28;798;-60
2022/04/29 00:17:51;;;;;;;;;;;;;;;17.74;44.64;101239.78;5077601;28;834;-59
2022/04/29 00:20:17;;;;;;;;;;;;;;;17.83;44.48;101247.53;5077193;28;1973;-59
2022/04/29 00:22:44;;;;;;;;;;;;;;;17.83;44.48;101247.53;5084734;28;851;-59
2022/04/29 00:25:09;;;;;;;;;;;;;;;17.82;44.77;101251.38;5081946;28;940;-60
2022/04/29 00:27:35;;;;;;;;;;;;;;;17.89;44.39;101258.28;5077259;28;748;-60
2022/04/29 00:30:01;;;;;;;;;;;;;;;17.88;44.45;101253.03;5077505;28;797;-60
2022/04/29 00:32:26;;;;;;;;;;;;;;;17.88;44.32;101251.13;5077339;28;810;-59
2022/04/29 00:34:51;;;;;;;;;;;;;;;17.92;44.31;101252.25;5075135;28;1176;-60
2022/04/29 00:37:17;;;;;;;;;;;;;;;18.00;44.18;101252.81;5077091;28;849;-60
2022/04/29 00:39:43;;;;;;;;;;;;;;;17.94;44.30;101249.25;5090019;28;958;-57
2022/04/29 00:42:15;;;;;;;;;;;;;;;17.93;44.46;101242.88;5096483;28;1913;-57
2022/04/29 00:44:41;;;;;;;;;;;;;;;17.95;44.46;101242.66;5095269;28;852;-58
2022/04/29 00:47:08;;;;;;;;;;;;;;;17.99;44.22;101246.47;5082097;28;860;-58
2022/04/29 00:49:33;;;;;;;;;;;;;;;18.00;44.22;101253.63;5096620;28;825;-57
2022/04/29 00:51:59;;;;;;;;;;;;;;;18.02;44.43;101237.69;5095001;28;1239;-57
2022/04/29 00:54:26;;;;;;;;;;;;;;;18.05;44.16;101245.41;5089755;28;1032;-57
2022/04/29 00:56:52;;;;;;;;;;;;;;;18.02;44.22;101240.44;5095081;28;930;-58
2022/04/29 00:59:21;;;;;;;;;;;;;;;18.04;44.21;101240.19;5095815;28;875;-57
2022/04/29 01:01:47;;;;;;;;;;;;;;;18.08;44.34;101238.53;5075950;28;2032;-58
2022/04/29 01:04:17;;;;;;;;;;;;;;;18.09;44.48;101245.66;5075339;28;1264;-58
2022/04/29 01:06:42;;;;;;;;;;;;;;;18.15;44.76;101236.34;5075967;28;888;-57
2022/04/29 01:09:08;;;;;;;;;;;;;;;18.18;44.80;101237.72;5080507;28;1038;-57
2022/04/29 01:11:33;;;;;;;;;;;;;;;18.03;44.35;101244.03;5075293;28;821;-57
2022/04/29 01:13:59;;;;;;;;;;;;;;;17.86;43.37;101242.28;5076099;28;1540;-57
2022/04/29 01:16:24;;;;;;;;;;;;;;;17.72;42.45;101230.97;5096070;28;773;-58
2022/04/29 01:18:50;;;;;;;;;;;;;;;17.53;41.36;101232.56;5094888;28;1132;-57
2022/04/29 01:21:16;;;;;;;;;;;;;;;17.40;40.95;101229.22;5094022;28;1901;-57
2022/04/29 01:23:43;;;;;;;;;;;;;;;17.28;40.18;101229.44;5092346;28;1285;-57
2022/04/29 01:26:10;;;;;;;;;;;;;;;17.15;40.09;101224.41;5081040;28;1253;-58
2022/04/29 01:28:35;;;;;;;;;;;;;;;17.05;39.77;101236.16;5076403;28;793;-58
2022/04/29 01:31:03;;;;;;;;;;;;;;;17.05;39.54;101240.84;5075690;28;1126;-58
2022/04/29 01:33:28;;;;;;;;;;;;;;;16.98;39.44;101235.56;5074740;28;848;-58
2022/04/29 01:35:54;;;;;;;;;;;;;;;16.90;39.54;101236.91;5075111;28;774;-57
2022/04/29 01:38:20;;;;;;;;;;;;;;;16.98;39.87;101246.56;5078702;28;792;-58
2022/04/29 01:40:47;;;;;;;;;;;;;;;17.10;40.83;101235.38;5078526;28;1910;-58
2022/04/29 01:43:17;;;;;;;;;;;;;;;17.24;41.80;101233.00;5074440;28;1637;-58
2022/04/29 01:45:43;;;;;;;;;;;;;;;17.52;43.41;101229.00;5076592;28;838;-58
2022/04/29 01:48:21;;;;;;;;;;;;;;;18.11;45.47;101238.81;5074828;28;1146;-58
2022/04/29 01:51:06;;;;;;;;;;;;;;;18.51;46.80;101233.63;5080323;28;776;-58
2022/04/29 01:53:32;;;;;;;;;;;;;;;18.76;47.40;101226.44;5089721;28;1143;-58
2022/04/29 01:55:59;;;;;;;;;;;;;;;18.46;48.34;101217.91;5094053;28;1106;-59
2022/04/29 01:58:24;;;;;;;;;;;;;;;17.49;49.11;101204.78;5094033;28;900;-59
2022/04/29 02:00:49;;;;;;;;;;;;;;;17.66;46.07;101201.81;5094410;28;1901;-58
2022/04/29 02:03:15;;;;;;;;;;;;;;;17.57;44.01;101189.66;5093502;28;1200;-58
2022/04/29 02:05:40;;;;;;;;;;;;;;;17.43;42.82;101195.69;5075668;28;1441;-58
2022/04/29 02:08:08;;;;;;;;;;;;;;;17.31;41.73;101191.53;5075246;28;1117;-59
2022/04/29 02:10:34;;;;;;;;;;;;;;;17.16;41.02;101200.50;5074694;28;1528;-59
2022/04/29 02:12:59;;;;;;;;;;;;;;;17.07;40.59;101191.97;5074582;28;1150;-59
2022/04/29 02:15:26;;;;;;;;;;;;;;;17.00;40.27;101194.94;5076040;28;721;-59
2022/04/29 02:17:52;;;;;;;;;;;;;;;16.95;39.97;101194.91;5075925;28;1421;-59
2022/04/29 02:20:18;;;;;;;;;;;;;;;16.91;40.37;101199.28;5074415;28;1910;-57
2022/04/29 02:22:43;;;;;;;;;;;;;;;17.07;41.40;101195.53;5076092;28;840;-58
2022/04/29 02:25:10;;;;;;;;;;;;;;;17.40;44.23;101201.72;5075261;28;1328;-59
2022/04/29 02:27:39;;;;;;;;;;;;;;;17.99;46.60;101213.47;5075934;28;782;-58
2022/04/29 02:30:05;;;;;;;;;;;;;;;18.40;47.76;101220.97;5079200;28;1126;-58
2022/04/29 02:32:30;;;;;;;;;;;;;;;18.72;48.49;101211.56;5075956;28;766;-58
2022/04/29 02:34:56;;;;;;;;;;;;;;;18.57;48.29;101217.91;5075759;28;807;-59
2022/04/29 02:37:21;;;;;;;;;;;;;;;17.32;49.56;101215.16;5076250;28;1347;-58
2022/04/29 02:39:49;;;;;;;;;;;;;;;17.55;46.27;101224.88;5078229;28;1357;-58
2022/04/29 02:42:15;;;;;;;;;;;;;;;17.48;44.21;101232.56;5077701;28;1902;-59
2022/04/29 02:44:40;;;;;;;;;;;;;;;17.34;42.63;101226.72;5078322;28;1148;-58
2022/04/29 02:47:08;;;;;;;;;;;;;;;17.22;41.92;101224.16;5078203;28;1335;-58
2022/04/29 02:49:43;;;;;;;;;;;;;;;17.15;40.75;101220.84;5079399;28;789;-57
2022/04/29 02:52:09;;;;;;;;;;;;;;;17.03;40.18;101213.63;5077605;28;1117;-58
2022/04/29 02:54:34;;;;;;;;;;;;;;;16.87;39.75;101218.19;5080954;28;878;-58
2022/04/29 02:57:01;;;;;;;;;;;;;;;16.87;39.59;101225.56;5078075;28;1323;-59
2022/04/29 02:59:35;;;;;;;;;;;;;;;16.80;39.63;101222.25;5078119;28;754;-58
2022/04/29 03:02:01;;;;;;;;;;;;;;;16.78;39.40;101219.75;5079031;28;1976;-57
2022/04/29 03:04:26;;;;;;;;;;;;;;;16.71;39.51;101219.97;5077748;28;1228;-57
2022/04/29 03:06:53;;;;;;;;;;;;;;;16.67;39.25;101220.78;5077893;28;1658;-57
2022/04/29 03:09:20;;;;;;;;;;;;;;;16.60;39.51;101223.75;5077882;28;1366;-57
2022/04/29 03:11:47;;;;;;;;;;;;;;;16.88;41.38;101224.50;5077533;28;1446;-57
2022/04/29 03:14:14;;;;;;;;;;;;;;;17.45;45.02;101234.72;5076909;28;1243;-57
2022/04/29 03:16:40;;;;;;;;;;;;;;;18.01;47.53;101235.22;5077481;28;1096;-58
2022/04/29 03:19:06;;;;;;;;;;;;;;;18.50;49.06;101220.13;5085073;28;1172;-60
2022/04/29 03:21:33;;;;;;;;;;;;;;;18.94;50.15;101227.81;5085572;28;1906;-59
2022/04/29 03:23:59;;;;;;;;;;;;;;;18.62;52.37;101237.19;5094314;28;1265;-57
2022/04/29 03:26:25;;;;;;;;;;;;;;;18.25;53.44;101232.78;5077407;28;1222;-57
2022/04/29 03:28:51;;;;;;;;;;;;;;;17.34;53.68;101240.47;5077291;28;1295;-57
2022/04/29 03:31:16;;;;;;;;;;;;;;;16.45;52.84;101246.41;5077331;28;2053;-56
2022/04/29 03:34:00;;;;;;;;;;;;;;;17.08;47.19;101252.13;5077815;28;880;-57
2022/04/29 03:36:26;;;;;;;;;;;;;;;17.13;44.74;101256.00;5076956;28;1122;-57
2022/04/29 03:38:53;;;;;;;;;;;;;;;17.07;43.25;101249.66;5078559;28;863;-56
2022/04/29 03:41:19;;;;;;;;;;;;;;;17.10;42.23;101251.88;5076861;28;1906;-57
2022/04/29 03:43:45;;;;;;;;;;;;;;;17.01;41.70;101248.81;5077414;28;1323;-57
2022/04/29 03:46:17;;;;;;;;;;;;;;;17.13;42.32;101258.75;5076472;28;1220;-55
2022/04/29 03:52:15;;;;;;;;;;;;;;;17.41;44.21;101257.53;5078684;28;1459;-59
2022/04/29 03:54:40;;;;;;;;;;;;;;;17.49;44.47;101251.53;5080266;28;1257;-59
2022/04/29 03:57:06;;;;;;;;;;;;;;;17.58;44.77;101243.59;5087948;28;1357;-60
2022/04/29 03:59:31;;;;;;;;;;;;;;;17.62;45.28;101258.44;5080210;28;895;-58
2022/04/29 04:01:58;;;;;;;;;;;;;;;17.69;45.24;101263.72;5076667;28;1971;-58
2022/04/29 04:04:23;;;;;;;;;;;;;;;17.73;45.24;101271.13;5077861;28;830;-58
2022/04/29 04:06:49;;;;;;;;;;;;;;;17.74;45.37;101270.06;5076313;28;1230;-58
2022/04/29 04:09:16;;;;;;;;;;;;;;;17.79;45.61;101270.09;5076562;28;1182;-58
2022/04/29 04:11:42;;;;;;;;;;;;;;;17.81;45.32;101268.97;5078713;28;1471;-58
2022/04/29 04:14:10;;;;;;;;;;;;;;;17.84;45.20;101269.25;5076986;28;1340;-58
2022/04/29 04:16:43;;;;;;;;;;;;;;;17.86;45.19;101271.75;5079443;28;1250;-58
2022/04/29 04:19:08;;;;;;;;;;;;;;;17.88;45.34;101273.13;5079081;28;1336;-58
2022/04/29 04:21:34;;;;;;;;;;;;;;;17.86;45.15;101278.06;5081508;28;1918;-58
2022/04/29 04:24:01;;;;;;;;;;;;;;;17.93;44.83;101278.66;5080057;28;1239;-58
2022/04/29 04:26:26;;;;;;;;;;;;;;;17.96;44.79;101280.03;5077303;28;1313;-58
2022/04/29 04:28:54;;;;;;;;;;;;;;;18.01;44.74;101287.50;5080261;28;1295;-58
2022/04/29 04:31:24;;;;;;;;;;;;;;;18.04;44.47;101293.28;5079471;28;1210;-58
2022/04/29 04:33:51;;;;;;;;;;;;;;;18.01;44.73;101299.34;5078964;28;1286;-58
2022/04/29 04:36:17;;;;;;;;;;;;;;;18.07;45.03;101303.75;5085931;28;1322;-58
2022/04/29 04:38:45;;;;;;;;;;;;;;;18.07;44.84;101303.75;5076094;28;1098;-58
2022/04/29 04:41:16;;;;;;;;;;;;;;;18.11;44.86;101296.59;5076005;28;1913;-58
2022/04/29 04:43:44;;;;;;;;;;;;;;;18.12;44.88;101297.44;5075507;28;1329;-58
2022/04/29 04:46:12;;;;;;;;;;;;;;;18.13;44.84;101293.56;5077399;28;849;-58
2022/04/29 04:48:40;;;;;;;;;;;;;;;18.15;44.79;101298.84;5079189;28;929;-58
2022/04/29 04:51:24;;;;;;;;;;;;;;;18.18;44.75;101298.28;5077190;28;623;-57
2022/04/29 04:53:56;;;;;;;;;;;;;;;18.16;44.60;101295.81;5095576;28;865;-58
2022/04/29 04:56:22;;;;;;;;;;;;;;;18.17;44.58;101299.38;5094923;28;1280;-58
2022/04/29 04:58:49;;;;;;;;;;;;;;;18.09;44.36;101284.19;5096815;28;842;-60
2022/04/29 05:01:15;;;;;;;;;;;;;;;17.98;43.71;101288.88;5094777;28;1976;-59
2022/04/29 05:03:59;;;;;;;;;;;;;;;17.78;42.69;101295.94;5076502;28;608;-59
2022/04/29 05:06:43;;;;;;;;;;;;;;;17.55;41.36;101293.63;5076653;28;1186;-59
2022/04/29 05:09:09;;;;;;;;;;;;;;;17.43;40.84;101296.56;5075608;28;1376;-59
2022/04/29 05:11:36;;;;;;;;;;;;;;;17.30;40.19;101297.88;5075339;28;1137;-58
2022/04/29 05:14:03;;;;;;;;;;;;;;;17.17;39.81;101299.16;5075157;28;1426;-58
2022/04/29 05:16:34;;;;;;;;;;;;;;;17.12;39.08;101303.81;5076667;28;817;-58
2022/04/29 05:19:32;;;;;;;;;;;;;;;17.10;39.53;101307.66;5090632;28;974;-57
2022/04/29 05:21:57;;;;;;;;;;;;;;;17.17;40.65;101312.09;5094550;28;1922;-57
2022/04/29 05:24:24;;;;;;;;;;;;;;;17.38;41.73;101318.56;5089939;28;1273;-58
2022/04/29 05:27:15;;;;;;;;;;;;;;;17.64;43.14;101316.75;5061483;28;1078;-58
2022/04/29 05:30:02;;;;;;;;;;;;;;;18.21;45.40;101320.56;5070703;28;1245;-57
2022/04/29 05:32:57;;;;;;;;;;;;;;;18.51;46.69;101313.47;5024811;28;1193;-60
2022/04/29 05:35:41;;;;;;;;;;;;;;;18.66;47.26;101315.41;5076450;28;809;-59
2022/04/29 05:44:05;;;;;;;;;;;;;;;17.83;42.98;101319.06;5094539;28;1169;-59
2022/04/29 05:46:31;;;;;;;;;;;;;;;17.63;41.82;101320.63;5093924;28;1358;-59
2022/04/29 05:48:57;;;;;;;;;;;;;;;17.47;41.12;101322.44;5087062;28;1138;-59
2022/04/29 05:51:22;;;;;;;;;;;;;;;17.31;40.26;101327.03;5079746;28;1318;-58
2022/04/29 05:53:48;;;;;;;;;;;;;;;17.26;39.90;101324.22;5074976;28;1197;-58
2022/04/29 05:56:14;;;;;;;;;;;;;;;17.12;39.62;101332.09;5077581;28;1178;-59
2022/04/29 05:58:39;;;;;;;;;;;;;;;17.06;39.45;101328.50;5077736;28;1343;-59
2022/04/29 06:01:43;;;;;;;;;;;;;;;16.95;39.07;101329.50;5079760;28;1901;-59
2022/04/29 06:04:08;;;;;;;;;;;;;;;16.98;39.09;101331.72;5078367;28;1422;-59
2022/04/29 06:06:36;;;;;;;;;;;;;;;16.96;40.22;101333.91;5080098;28;1278;-62
2022/04/29 06:09:02;;;;;;;;;;;;;;;17.37;42.12;101336.13;5090248;28;1403;-59
2022/04/29 06:11:28;;;;;;;;;;;;;;;17.87;45.43;101342.19;5075668;28;1283;-60
2022/04/29 06:13:54;;;;;;;;;;;;;;;18.35;46.98;101342.91;5078461;28;1637;-61
2022/04/29 06:16:43;;;;;;;;;;;;;;;18.74;47.80;101333.34;5079887;28;986;-60
2022/04/29 06:19:27;;;;;;;;;;;;;;;18.79;48.67;101341.59;5080833;28;796;-60
2022/04/29 06:22:15;;;;;;;;;;;;;;;17.60;49.82;101332.97;5079797;28;1901;-59
2022/04/29 06:24:44;;;;;;;;;;;;;;;17.31;48.04;101332.53;5078500;28;1402;-59
2022/04/29 06:27:10;;;;;;;;;;;;;;;17.51;45.23;101326.31;5077951;28;1263;-60
2022/04/29 06:29:36;;;;;;;;;;;;;;;17.40;43.10;101328.19;5082948;28;1321;-60
2022/04/29 06:32:04;;;;;;;;;;;;;;;17.30;41.89;101327.28;5075882;28;1349;-59
2022/04/29 06:34:49;;;;;;;;;;;;;;;17.21;40.72;101329.72;5080204;28;1069;-60
2022/04/29 06:37:14;;;;;;;;;;;;;;;17.07;39.94;101329.34;5081657;28;1146;-58
2022/04/29 06:39:41;;;;;;;;;;;;;;;16.98;39.39;101336.41;5078935;28;1340;-58
2022/04/29 06:42:29;;;;;;;;;;;;;;;16.90;39.47;101340.44;5085390;28;1980;-58
2022/04/29 06:45:18;;;;;;;;;;;;;;;17.04;40.29;101340.84;5067896;28;1194;-58
2022/04/29 06:48:02;;;;;;;;;;;;;;;17.16;41.42;101337.91;5081199;28;1013;-59
2022/04/29 06:51:03;;;;;;;;;;;;;;;17.42;42.95;101330.69;5036302;28;1283;-58
2022/04/29 06:53:45;;;;;;;;;;;;;;;17.55;43.97;101337.63;5080005;28;1394;-59
2022/04/29 06:56:10;;;;;;;;;;;;;;;17.67;44.59;101338.25;5078776;28;1323;-58
2022/04/29 06:58:36;;;;;;;;;;;;;;;17.81;44.88;101338.59;5081126;28;1230;-58
2022/04/29 07:01:02;;;;;;;;;;;;;;;17.85;45.47;101338.84;5080810;28;1976;-59
2022/04/29 07:03:27;;;;;;;;;;;;;;;17.92;45.55;101333.97;5082131;28;1185;-59
2022/04/29 07:05:53;;;;;;;;;;;;;;;18.01;45.65;101337.03;5081696;28;1221;-59
2022/04/29 07:08:21;;;;;;;;;;;;;;;18.09;45.77;101336.50;5081633;28;1262;-58
2022/04/29 07:11:21;;;;;;;;;;;;;;;18.09;46.11;101336.50;5043135;28;1303;-59
2022/04/29 07:13:58;;;;;;;;;;;;;;;18.23;45.79;101336.81;5073916;28;1263;-58
2022/04/29 07:16:23;;;;;;;;;;;;;;;18.27;46.08;101343.44;5079750;28;1353;-58
2022/04/29 07:18:52;;;;;;;;;;;;;;;18.30;46.04;101340.16;5083631;28;1186;-59
2022/04/29 07:21:18;;;;;;;;;;;;;;;18.30;45.71;101340.16;5079875;28;1952;-57
2022/04/29 07:23:44;;;;;;;;;;;;;;;18.23;45.41;101334.06;5083318;28;1188;-58
2022/04/29 07:26:11;;;;;;;;;;;;;;;18.22;45.22;101343.44;5081407;28;1293;-59
2022/04/29 07:28:36;;;;;;;;;;;;;;;18.10;44.26;101343.66;5081118;28;1246;-59
2022/04/29 07:31:02;;;;;;;;;;;;;;;17.92;43.68;101344.97;5080072;28;1343;-58
2022/04/29 07:33:54;;;;;;;;;;;;;;;17.81;42.59;101334.97;5079568;28;1201;-57
2022/04/29 07:42:06;;;;;;;;;;;;;;;17.38;40.20;101327.63;5077374;28;1971;-59
2022/04/29 07:44:32;;;;;;;;;;;;;;;17.26;40.13;101332.47;5083308;28;1262;-56
2022/04/29 07:46:58;;;;;;;;;;;;;;;17.20;39.69;101328.06;5087380;28;1461;-57
2022/04/29 07:49:38;;;;;;;;;;;;;;;17.14;39.27;101329.09;5090878;28;1229;-57
2022/04/29 07:52:04;;;;;;;;;;;;;;;17.06;39.18;101335.91;5096511;28;1410;-57
2022/04/29 07:54:34;;;;;;;;;;;;;;;17.02;39.44;101334.78;5091134;28;1122;-57
2022/04/29 07:57:00;;;;;;;;;;;;;;;16.95;39.34;101329.50;5096343;28;1229;-56
2022/04/29 07:59:25;;;;;;;;;;;;;;;16.97;39.65;101332.00;5095654;28;1149;-58
2022/04/29 08:02:07;;;;;;;;;;;;;;;17.24;41.59;101331.94;5079980;28;1910;-58
2022/04/29 08:04:33;;;;;;;;;;;;;;;17.79;44.28;101330.59;5078237;28;1358;-58
2022/04/29 08:06:58;;;;;;;;;;;;;;;18.18;45.98;101331.31;5081749;28;1308;-58
2022/04/29 08:09:25;;;;;;;;;;;;;;;18.46;47.11;101327.25;5083377;28;1202;-58
2022/04/29 08:11:53;;;;;;;;;;;;;;;18.70;47.38;101335.78;5079664;28;1282;-59
2022/04/29 08:14:31;;;;;;;;;;;;;;;18.76;48.21;101331.97;5079509;28;1147;-57
2022/04/29 08:17:20;;;;;;;;;;;;;;;18.52;46.59;101328.88;5079405;28;1380;-57
2022/04/29 08:19:49;;;;;;;;;;;;;;;18.21;44.99;101325.25;5078540;28;1134;-57
2022/04/29 08:22:20;;;;;;;;;;;;;;;18.00;43.41;101327.13;5082125;28;1894;-57
2022/04/29 08:24:47;;;;;;;;;;;;;;;17.72;41.96;101326.41;5078569;28;1202;-56
2022/04/29 08:27:13;;;;;;;;;;;;;;;17.52;41.00;101329.91;5079121;28;1405;-57
2022/04/29 08:29:40;;;;;;;;;;;;;;;17.45;40.28;101328.19;5080382;28;1301;-57
2022/04/29 08:32:06;;;;;;;;;;;;;;;17.36;39.65;101326.22;5079223;28;1232;-57
2022/04/29 08:34:35;;;;;;;;;;;;;;;17.26;39.07;101321.47;5078846;28;1345;-57
2022/04/29 08:37:03;;;;;;;;;;;;;;;17.15;38.68;101317.00;5085254;28;1195;-57
2022/04/29 08:39:31;;;;;;;;;;;;;;;17.07;38.86;101318.34;5084019;28;1268;-57
2022/04/29 08:42:00;;;;;;;;;;;;;;;17.05;38.86;101321.34;5076609;28;1973;-57
2022/04/29 08:44:26;;;;;;;;;;;;;;;17.07;38.78;101321.91;5077104;28;1223;-58
2022/04/29 08:47:00;;;;;;;;;;;;;;;17.30;40.92;101321.78;5079519;28;1268;-58
2022/04/29 08:49:34;;;;;;;;;;;;;;;17.63;43.13;101331.63;5083770;28;1365;-57
2022/04/29 08:52:01;;;;;;;;;;;;;;;17.94;45.07;101323.53;5079056;28;1226;-58
2022/04/29 09:00:14;;;;;;;;;;;;;;;18.78;47.87;101328.94;5092158;28;1910;-57
2022/04/29 09:02:40;;;;;;;;;;;;;;;18.23;48.53;101312.03;5096537;28;794;-57
2022/04/29 09:05:09;;;;;;;;;;;;;;;17.50;48.48;101310.94;5079804;28;1151;-57
2022/04/29 09:07:50;;;;;;;;;;;;;;;17.13;47.81;101316.47;5077224;28;1095;-58
2022/04/29 09:10:15;;;;;;;;;;;;;;;17.45;44.27;101314.47;5078165;28;1095;-58
2022/04/29 09:12:41;;;;;;;;;;;;;;;17.43;42.86;101308.41;5078898;28;1183;-58
2022/04/29 09:15:13;;;;;;;;;;;;;;;17.40;41.65;101310.84;5081188;28;1265;-58
2022/04/29 09:17:39;;;;;;;;;;;;;;;17.29;41.12;101309.94;5083158;28;1179;-57
2022/04/29 09:20:16;;;;;;;;;;;;;;;17.26;40.27;101294.84;5075971;28;1293;-58
2022/04/29 09:22:49;;;;;;;;;;;;;;;17.19;40.29;101298.91;5080027;28;1186;-57
2022/04/29 09:25:36;;;;;;;;;;;;;;;17.13;39.99;101305.47;5079749;28;1107;-58
2022/04/29 09:28:20;;;;;;;;;;;;;;;17.05;39.74;101302.09;5086985;28;1154;-57
2022/04/29 09:31:06;;;;;;;;;;;;;;;17.00;39.96;101306.72;5071843;28;1095;-57
2022/04/29 09:33:54;;;;;;;;;;;;;;;16.99;39.62;101303.16;5091279;28;677;-58
2022/04/29 09:36:43;;;;;;;;;;;;;;;17.00;39.93;101307.56;5094559;28;1164;-58
2022/04/29 09:42:01;;;;;;;;;;;;;;;17.34;42.69;101304.50;5080073;28;1921;-59
2022/04/29 09:44:28;;;;;;;;;;;;;;;17.86;45.34;101304.75;5076438;28;873;-58
2022/04/29 09:46:53;;;;;;;;;;;;;;;18.21;46.96;101309.56;5075853;28;765;-57
2022/04/29 09:49:19;;;;;;;;;;;;;;;18.49;47.78;101296.41;5074517;28;1092;-57
2022/04/29 09:51:45;;;;;;;;;;;;;;;18.76;48.64;101309.06;5074946;28;766;-58
2022/04/29 09:54:17;;;;;;;;;;;;;;;18.61;48.03;101301.66;5076861;28;840;-60
2022/04/29 09:57:03;;;;;;;;;;;;;;;17.52;48.59;101277.66;5079410;28;1167;-60
2022/04/29 09:59:48;;;;;;;;;;;;;;;17.77;45.40;101287.94;5078183;28;1535;-59
2022/04/29 10:02:17;;;;;;;;;;;;;;;17.69;43.16;101289.28;5076115;28;1909;-60
2022/04/29 10:04:47;;;;;;;;;;;;;;;17.55;42.09;101288.13;5087943;28;1318;-60
2022/04/29 10:07:13;;;;;;;;;;;;;;;17.49;41.24;101292.75;5095099;28;768;-58
2022/04/29 10:09:42;;;;;;;;;;;;;;;17.38;40.55;101288.31;5087136;28;1202;-57
2022/04/29 10:12:10;;;;;;;;;;;;;;;17.30;40.05;101284.13;5094630;28;790;-58
2022/04/29 10:14:40;;;;;;;;;;;;;;;17.20;39.87;101286.81;5093840;28;1300;-58
2022/04/29 10:23:06;;;;;;;;;;;;;;;17.22;40.42;101276.38;5075234;28;942;-58
2022/04/29 10:25:31;;;;;;;;;;;;;;;17.45;42.61;101280.66;5076940;28;948;-58
2022/04/29 10:27:57;;;;;;;;;;;;;;;17.75;44.46;101277.22;5074721;28;1262;-58
2022/04/29 10:30:30;;;;;;;;;;;;;;;18.06;46.01;101276.50;5077320;28;1255;-58
2022/04/29 10:32:59;;;;;;;;;;;;;;;18.39;46.99;101279.88;5077883;28;1232;-58
2022/04/29 10:35:45;;;;;;;;;;;;;;;18.53;47.77;101266.41;5080552;28;1178;-58
2022/04/29 10:38:13;;;;;;;;;;;;;;;18.62;47.92;101273.84;5078060;28;1151;-58
2022/04/29 10:40:39;;;;;;;;;;;;;;;17.95;48.97;101273.72;5077228;28;1898;-58
2022/04/29 10:43:08;;;;;;;;;;;;;;;17.57;48.02;101269.41;5079690;28;1237;-58
2022/04/29 10:45:33;;;;;;;;;;;;;;;17.30;46.88;101258.56;5077589;28;1029;-58
2022/04/29 10:48:20;;;;;;;;;;;;;;;17.50;44.30;101266.94;5074960;28;1378;-57
2022/04/29 10:51:15;;;;;;;;;;;;;;;17.45;42.24;101275.16;5075664;28;1888;-58
2022/04/29 10:54:06;;;;;;;;;;;;;;;17.37;41.24;101279.22;5077148;28;1753;-58
2022/04/29 10:57:02;;;;;;;;;;;;;;;17.27;40.87;101274.50;5077413;28;1053;-58
2022/04/29 10:59:27;;;;;;;;;;;;;;;17.22;40.01;101273.63;5085902;28;1178;-59
2022/04/29 11:02:07;;;;;;;;;;;;;;;17.20;39.63;101267.59;5079367;28;1905;-58
2022/04/29 11:04:32;;;;;;;;;;;;;;;17.07;39.47;101269.72;5080309;28;1020;-58
2022/04/29 11:06:57;;;;;;;;;;;;;;;17.03;39.35;101268.59;5079471;28;1043;-58
2022/04/29 11:09:42;;;;;;;;;;;;;;;16.98;39.87;101263.03;5081948;28;1237;-59
2022/04/29 11:12:08;;;;;;;;;;;;;;;17.14;40.68;101263.97;5083824;28;1341;-59
2022/04/29 11:15:09;;;;;;;;;;;;;;;17.33;42.13;101261.59;5021834;28;1404;-59
2022/04/29 11:17:53;;;;;;;;;;;;;;;17.53;43.39;101262.78;5082198;28;1067;-59
2022/04/29 11:20:23;;;;;;;;;;;;;;;17.70;43.84;101251.63;5080010;28;1906;-59
2022/04/29 11:25:52;;;;;;;;;;;;;;;17.89;45.06;101258.28;5082890;28;1146;-58
2022/04/29 11:28:29;;;;;;;;;;;;;;;17.95;45.49;101259.16;5080280;28;1260;-58
2022/04/29 11:31:14;;;;;;;;;;;;;;;18.04;45.24;101256.69;5078473;28;1363;-57
2022/04/29 11:33:39;;;;;;;;;;;;;;;18.09;45.57;101263.03;5078136;28;1052;-60
2022/04/29 11:36:05;;;;;;;;;;;;;;;18.19;45.54;101267.72;5080113;28;1272;-60
2022/04/29 11:38:31;;;;;;;;;;;;;;;18.21;45.40;101264.69;5081560;28;1151;-59
2022/04/29 11:41:00;;;;;;;;;;;;;;;18.27;45.30;101255.34;5081440;28;1913;-59
2022/04/29 11:43:26;;;;;;;;;;;;;;;18.23;45.00;101262.47;5080523;28;1305;-59
2022/04/29 11:46:02;;;;;;;;;;;;;;;18.19;44.95;101256.72;5080595;28;1194;-58
2022/04/29 11:48:30;;;;;;;;;;;;;;;18.25;44.64;101254.78;5081705;28;1298;-59
2022/04/29 11:50:56;;;;;;;;;;;;;;;18.27;44.53;101255.34;5083243;28;968;-59
2022/04/29 11:53:21;;;;;;;;;;;;;;;18.10;44.05;101255.59;5078661;28;1234;-58
2022/04/29 11:55:51;;;;;;;;;;;;;;;17.95;43.21;101261.91;5080381;28;1308;-59
2022/04/29 11:58:17;;;;;;;;;;;;;;;17.72;42.25;101244.72;5080611;28;1230;-60
2022/04/29 12:00:47;;;;;;;;;;;;;;;17.65;41.43;101252.41;5082806;28;1902;-59
2022/04/29 12:03:17;;;;;;;;;;;;;;;17.57;40.64;101252.91;5079480;28;1230;-59
2022/04/29 12:05:44;;;;;;;;;;;;;;;17.44;40.56;101252.31;5079582;28;1187;-59
2022/04/29 12:08:14;;;;;;;;;;;;;;;17.35;40.28;101253.94;5080214;28;1179;-59
2022/04/29 12:10:46;;;;;;;;;;;;;;;17.24;39.87;101233.81;5087615;28;1277;-59
2022/04/29 12:13:11;;;;;;;;;;;;;;;17.23;39.79;101245.06;5079137;28;1307;-58
2022/04/29 12:15:39;;;;;;;;;;;;;;;17.15;39.62;101242.81;5078627;28;1328;-59
2022/04/29 12:18:12;;;;;;;;;;;;;;;17.14;39.59;101246.66;5094127;28;869;-58
2022/04/29 12:20:37;;;;;;;;;;;;;;;17.05;39.22;101255.38;5097062;28;1909;-58
2022/04/29 12:23:11;;;;;;;;;;;;;;;17.06;38.99;101253.50;5096908;28;1086;-60
2022/04/29 12:25:42;;;;;;;;;;;;;;;17.05;39.13;101252.66;5079363;28;808;-59
2022/04/29 12:28:20;;;;;;;;;;;;;;;17.34;41.41;101245.97;5076261;28;1141;-59
2022/04/29 12:37:09;;;;;;;;;;;;;;;19.16;48.25;101246.78;5096107;28;1351;-60
2022/04/29 12:39:47;;;;;;;;;;;;;;;18.21;51.24;101248.19;5092598;28;1409;-59
2022/04/29 12:42:13;;;;;;;;;;;;;;;17.82;50.61;101245.88;5076489;28;1977;-60
2022/04/29 12:45:04;;;;;;;;;;;;;;;16.28;52.54;101246.53;5077721;28;877;-62
2022/04/29 12:47:38;;;;;;;;;;;;;;;17.15;46.61;101237.31;5092923;28;838;-61
2022/04/29 12:50:23;;;;;;;;;;;;;;;17.27;44.21;101241.50;5096695;28;892;-60
2022/04/29 12:53:03;;;;;;;;;;;;;;;17.24;42.97;101250.28;5092379;28;852;-59
2022/04/29 12:55:41;;;;;;;;;;;;;;;17.15;41.99;101242.81;5077194;28;788;-60
2022/04/29 12:58:08;;;;;;;;;;;;;;;17.17;41.04;101251.63;5076060;28;1219;-61
2022/04/29 13:00:34;;;;;;;;;;;;;;;17.09;40.95;101244.72;5077312;28;1910;-58
2022/04/29 13:03:00;;;;;;;;;;;;;;;17.08;40.57;101237.56;5079071;28;1313;-60
2022/04/29 13:05:26;;;;;;;;;;;;;;;17.07;41.21;101236.75;5079693;28;1293;-61
2022/04/29 13:07:52;;;;;;;;;;;;;;;17.39;42.72;101230.31;5080287;28;1293;-61
2022/04/29 13:10:18;;;;;;;;;;;;;;;17.89;46.00;101240.94;5091724;28;981;-59
2022/04/29 13:12:44;;;;;;;;;;;;;;;18.24;48.18;101242.13;5096777;28;1148;-60
2022/04/29 13:15:23;;;;;;;;;;;;;;;18.54;49.27;101235.00;5094944;28;1179;-59
2022/04/29 13:17:49;;;;;;;;;;;;;;;18.78;49.45;101243.53;5096354;28;772;-59
2022/04/29 13:20:14;;;;;;;;;;;;;;;18.57;48.67;101245.47;5080631;28;861;-60
2022/04/29 13:22:40;;;;;;;;;;;;;;;18.29;47.19;101236.63;5075031;28;1974;-58
2022/04/29 13:25:07;;;;;;;;;;;;;;;18.05;45.01;101239.91;5090200;28;1033;-58
2022/04/29 13:27:34;;;;;;;;;;;;;;;17.76;43.33;101226.59;5094796;28;1833;-59
2022/04/29 13:30:03;;;;;;;;;;;;;;;17.57;42.19;101220.78;5096276;28;805;-61
2022/04/29 13:32:28;;;;;;;;;;;;;;;17.44;40.90;101227.56;5079098;28;840;-61
2022/04/29 13:34:54;;;;;;;;;;;;;;;17.33;40.25;101228.63;5076583;28;746;-59
2022/04/29 13:37:20;;;;;;;;;;;;;;;17.20;39.80;101223.63;5077224;28;824;-59
2022/04/29 13:39:46;;;;;;;;;;;;;;;17.10;39.30;101233.44;5084181;28;766;-61
2022/04/29 13:42:15;;;;;;;;;;;;;;;17.02;39.10;101233.94;5094592;28;1914;-59
2022/04/29 13:44:42;;;;;;;;;;;;;;;16.90;39.22;101228.66;5084230;28;803;-58